Time;durP1;ratioP1;P1;durP2;ratioP2;P2;SDS_P1;SDS_P2;PMS_P1;PMS_P2;Temp;Humidity;BMP_temperature;BMP_pressure;BME280_temperature;BME280_humidity;BME280_pressure;Samples;Min_cycle;Max_cycle;Signal;HPM_P1;HPM_P2
2021/11/07 00:01:25;;;;;;;13.02;8.65;;;4.70;99.90;;;;;;5059637;28;20316;-81
2021/11/07 00:03:56;;;;;;;13.38;8.82;;;4.70;99.90;;;;;;5059847;28;20285;-80
2021/11/07 00:06:27;;;;;;;14.57;9.18;;;4.70;99.90;;;;;;5060196;28;20186;-81
2021/11/07 00:08:58;;;;;;;16.05;10.07;;;4.70;99.90;;;;;;5059691;28;20213;-81
2021/11/07 00:11:29;;;;;;;13.45;9.55;;;4.80;99.90;;;;;;5064068;28;20230;-81
2021/11/07 00:13:56;;;;;;;12.93;8.23;;;4.90;99.90;;;;;;5061966;28;20186;-81
2021/11/07 00:16:27;;;;;;;13.98;8.52;;;4.70;99.90;;;;;;5060155;28;20222;-81
2021/11/07 00:19:05;;;;;;;13.60;9.32;;;4.80;99.90;;;;;;5060186;28;20387;-81
2021/11/07 00:21:38;;;;;;;12.32;8.40;;;4.80;99.90;;;;;;5060686;28;20226;-81
2021/11/07 00:24:08;;;;;;;13.60;9.40;;;4.80;99.90;;;;;;5068268;28;20189;-81
2021/11/07 00:26:43;;;;;;;13.65;8.50;;;5.00;99.90;;;;;;5065783;28;20249;-81
2021/11/07 00:29:14;;;;;;;12.23;8.55;;;4.90;99.90;;;;;;5060041;28;20230;-82
2021/11/07 00:31:47;;;;;;;12.40;7.70;;;4.80;99.90;;;;;;5059896;28;20244;-81
2021/11/07 00:37:15;;;;;;;14.07;9.23;;;4.90;99.90;;;;;;5004315;28;20220;-80
2021/11/07 00:39:47;;;;;;;16.80;10.13;;;4.60;99.90;;;;;;5005878;28;20275;-81
2021/11/07 00:42:19;;;;;;;14.60;9.65;;;4.70;99.90;;;;;;5028048;28;20279;-80
2021/11/07 00:44:52;;;;;;;12.70;7.85;;;4.40;99.90;;;;;;5059463;28;20662;-81
2021/11/07 00:47:37;;;;;;;14.90;8.57;;;4.60;99.90;;;;;;5059670;28;20647;-81
2021/11/07 00:50:09;;;;;;;13.30;8.90;;;4.60;99.90;;;;;;5059769;28;20190;-80
2021/11/07 00:52:39;;;;;;;11.85;7.68;;;4.50;99.90;;;;;;5059006;28;20218;-81
2021/11/07 00:55:11;;;;;;;14.63;8.73;;;4.50;99.90;;;;;;5059130;28;20202;-80
2021/11/07 00:57:48;;;;;;;12.32;8.65;;;4.70;99.90;;;;;;5057859;28;20650;-80
2021/11/07 01:00:23;;;;;;;14.85;8.55;;;4.70;99.90;;;;;;5058216;28;20194;-80
2021/11/07 01:02:54;;;;;;;14.30;9.20;;;4.60;99.90;;;;;;5057625;28;20226;-82
2021/11/07 01:05:26;;;;;;;10.68;6.45;;;4.50;99.90;;;;;;5058111;28;20228;-80
2021/11/07 01:07:53;;;;;;;15.30;9.68;;;4.50;99.90;;;;;;5061596;28;20290;-81
2021/11/07 01:10:20;;;;;;;11.40;7.40;;;4.40;99.90;;;;;;5059965;28;20580;-81
2021/11/07 01:12:47;;;;;;;13.48;7.47;;;4.40;99.90;;;;;;5058277;28;20230;-81
2021/11/07 01:15:15;;;;;;;13.80;7.75;;;4.30;99.90;;;;;;5059130;28;20576;-81
2021/11/07 01:17:42;;;;;;;13.38;8.23;;;4.20;99.90;;;;;;5058881;28;20728;-81
2021/11/07 01:20:12;;;;;;;13.30;8.70;;;4.30;99.90;;;;;;5058618;28;20209;-81
2021/11/07 01:22:50;;;;;;;13.48;8.20;;;4.30;99.90;;;;;;5058046;28;20312;-81
2021/11/07 01:25:17;;;;;;;13.60;8.20;;;4.30;99.90;;;;;;5059007;28;20204;-81
2021/11/07 01:27:45;;;;;;;13.57;9.15;;;4.30;99.90;;;;;;5058599;28;20283;-81
2021/11/07 01:30:24;;;;;;;12.15;7.47;;;4.30;99.90;;;;;;5057004;28;20206;-81
2021/11/07 01:32:59;;;;;;;12.32;8.02;;;4.40;99.90;;;;;;5057291;28;20230;-81
2021/11/07 01:35:34;;;;;;;11.45;7.88;;;4.60;99.90;;;;;;5057069;28;20189;-80
2021/11/07 01:38:11;;;;;;;11.80;7.40;;;4.70;99.90;;;;;;5058224;28;20189;-81
2021/11/07 01:40:41;;;;;;;12.90;8.32;;;4.40;99.90;;;;;;5057045;28;20284;-81
2021/11/07 01:43:08;;;;;;;10.70;7.40;;;4.70;99.90;;;;;;5057849;28;20198;-80
2021/11/07 01:45:41;;;;;;;11.45;7.28;;;4.90;99.90;;;;;;5058629;28;20222;-80
2021/11/07 01:48:10;;;;;;;13.48;7.70;;;4.70;99.90;;;;;;5058481;28;20290;-81
2021/11/07 01:50:41;;;;;;;11.57;7.25;;;4.90;99.90;;;;;;5057495;28;20613;-80
2021/11/07 01:53:17;;;;;;;12.50;8.50;;;4.90;99.90;;;;;;5058496;28;20222;-81
2021/11/07 01:55:44;;;;;;;11.35;7.72;;;4.90;99.90;;;;;;5057867;28;20194;-81
2021/11/07 01:58:11;;;;;;;11.65;7.57;;;4.90;99.90;;;;;;5056824;28;20229;-81
2021/11/07 02:00:38;;;;;;;12.77;8.80;;;4.90;99.90;;;;;;5057347;28;20293;-81
2021/11/07 02:03:05;;;;;;;11.63;8.27;;;5.00;99.90;;;;;;5056973;28;20253;-81
2021/11/07 02:05:32;;;;;;;12.38;8.05;;;5.20;99.90;;;;;;5057708;28;20667;-80
2021/11/07 02:08:03;;;;;;;11.75;7.78;;;5.00;99.90;;;;;;5061779;28;20198;-80
2021/11/07 02:10:30;;;;;;;15.07;8.68;;;4.90;99.90;;;;;;5044897;28;20297;-80
2021/11/07 02:12:57;;;;;;;12.13;7.30;;;4.90;99.90;;;;;;5062028;28;20224;-80
2021/11/07 02:15:24;;;;;;;12.95;8.50;;;5.10;99.90;;;;;;5058921;28;20292;-79
2021/11/07 02:17:51;;;;;;;16.02;8.38;;;5.10;99.90;;;;;;5061431;28;20226;-80
2021/11/07 02:20:29;;;;;;;12.32;8.30;;;5.30;99.90;;;;;;5057865;28;20206;-82
2021/11/07 02:22:57;;;;;;;13.40;8.82;;;5.20;99.90;;;;;;5060698;28;20236;-80
2021/11/07 02:25:24;;;;;;;12.60;7.60;;;5.20;99.90;;;;;;5065002;28;20301;-80
2021/11/07 02:27:51;;;;;;;14.43;8.55;;;5.10;99.90;;;;;;5067858;28;20269;-80
2021/11/07 02:30:18;;;;;;;15.20;9.50;;;5.30;99.90;;;;;;5063279;28;20202;-81
2021/11/07 02:32:47;;;;;;;14.18;9.20;;;5.20;99.90;;;;;;5061712;28;20233;-82
2021/11/07 02:35:15;;;;;;;13.73;8.80;;;5.00;99.90;;;;;;5060569;28;20214;-83
2021/11/07 02:37:44;;;;;;;12.65;8.00;;;5.40;99.90;;;;;;5059715;28;20289;-80
2021/11/07 02:40:12;;;;;;;12.95;8.30;;;5.30;99.90;;;;;;5059802;28;20202;-80
2021/11/07 02:42:43;;;;;;;12.52;8.88;;;5.20;99.90;;;;;;5059961;28;20230;-80
2021/11/07 02:45:11;;;;;;;13.50;9.40;;;5.00;99.90;;;;;;5061242;28;20190;-81
2021/11/07 02:47:38;;;;;;;13.95;9.02;;;5.10;99.90;;;;;;5061437;28;20265;-80
2021/11/07 02:50:07;;;;;;;13.38;9.23;;;5.00;99.90;;;;;;5063803;28;20270;-80
2021/11/07 02:52:33;;;;;;;13.93;10.00;;;4.90;99.90;;;;;;5068899;28;20226;-80
2021/11/07 02:55:02;;;;;;;17.70;10.20;;;5.20;99.90;;;;;;5061925;28;20214;-82
2021/11/07 02:57:29;;;;;;;13.45;8.95;;;5.20;99.90;;;;;;5056810;28;20603;-80
2021/11/07 02:59:58;;;;;;;14.38;9.77;;;5.20;99.90;;;;;;5056029;28;20237;-80
2021/11/07 03:02:25;;;;;;;14.25;8.98;;;5.30;99.90;;;;;;5057063;28;20226;-80
2021/11/07 03:04:53;;;;;;;17.20;11.73;;;5.20;99.90;;;;;;5069649;28;20270;-80
2021/11/07 03:07:20;;;;;;;16.52;9.65;;;5.20;99.90;;;;;;5067934;28;20267;-80
2021/11/07 03:09:47;;;;;;;13.70;8.75;;;5.10;99.90;;;;;;5060924;28;20578;-82
2021/11/07 03:12:15;;;;;;;15.38;9.75;;;5.10;99.90;;;;;;5061126;28;20620;-82
2021/11/07 03:14:46;;;;;;;14.18;9.00;;;4.90;99.90;;;;;;5061784;28;20245;-81
2021/11/07 03:17:17;;;;;;;14.27;9.50;;;4.90;99.90;;;;;;5069297;28;20225;-81
2021/11/07 03:19:44;;;;;;;14.27;8.40;;;5.00;99.90;;;;;;5070292;28;20187;-81
2021/11/07 03:22:13;;;;;;;14.30;8.27;;;5.20;99.90;;;;;;5067301;28;20228;-80
2021/11/07 03:24:41;;;;;;;14.63;9.43;;;5.10;99.90;;;;;;5066886;28;20206;-80
2021/11/07 03:27:13;;;;;;;12.88;9.02;;;4.70;99.90;;;;;;5068101;28;20631;-81
2021/11/07 03:29:44;;;;;;;15.35;9.15;;;4.60;99.90;;;;;;5060721;28;20226;-81
2021/11/07 03:32:15;;;;;;;13.10;9.60;;;4.70;99.90;;;;;;5069399;28;20237;-80
2021/11/07 03:34:45;;;;;;;14.82;9.95;;;4.60;99.90;;;;;;5069354;28;20217;-81
2021/11/07 03:37:13;;;;;;;13.68;9.43;;;4.40;99.90;;;;;;5059696;28;20229;-81
2021/11/07 03:39:41;;;;;;;14.10;7.97;;;4.60;99.90;;;;;;5060673;28;20265;-81
2021/11/07 03:42:10;;;;;;;14.15;9.32;;;4.60;99.90;;;;;;5059904;28;20226;-81
2021/11/07 03:44:38;;;;;;;13.50;8.98;;;4.50;99.90;;;;;;5059952;28;20293;-81
2021/11/07 03:47:08;;;;;;;12.77;8.55;;;4.70;99.90;;;;;;5061069;28;20335;-81
2021/11/07 03:49:35;;;;;;;14.48;9.93;;;4.60;99.90;;;;;;5062818;28;20270;-81
2021/11/07 03:52:02;;;;;;;14.40;8.70;;;4.40;99.90;;;;;;5060435;28;20225;-80
2021/11/07 03:54:30;;;;;;;11.55;8.20;;;4.60;99.90;;;;;;5060674;28;20207;-80
2021/11/07 03:56:59;;;;;;;12.15;8.90;;;4.80;99.90;;;;;;5059571;28;20229;-80
2021/11/07 03:59:26;;;;;;;14.45;9.65;;;4.60;99.90;;;;;;5060181;28;20206;-80
2021/11/07 04:01:53;;;;;;;13.02;9.18;;;4.50;99.90;;;;;;5059816;28;20230;-81
2021/11/07 04:04:22;;;;;;;13.90;9.60;;;4.70;99.90;;;;;;5059130;28;20238;-82
2021/11/07 04:06:50;;;;;;;10.70;8.10;;;4.70;99.90;;;;;;5064411;28;20202;-81
2021/11/07 04:09:17;;;;;;;14.18;9.63;;;4.60;99.90;;;;;;5061621;28;20210;-81
2021/11/07 04:11:45;;;;;;;14.13;7.97;;;4.60;99.90;;;;;;5060541;28;20316;-80
2021/11/07 04:14:13;;;;;;;14.40;9.15;;;4.40;99.90;;;;;;5060349;28;20229;-81
2021/11/07 04:16:40;;;;;;;13.00;8.65;;;4.60;99.90;;;;;;5059461;28;20222;-81
2021/11/07 04:19:09;;;;;;;12.45;7.90;;;4.60;99.90;;;;;;5059412;28;20202;-81
2021/11/07 04:21:40;;;;;;;13.85;8.60;;;4.60;99.90;;;;;;5059323;28;20242;-80
2021/11/07 04:24:07;;;;;;;12.90;8.30;;;4.80;99.90;;;;;;5059042;28;20198;-79
2021/11/07 04:26:34;;;;;;;14.95;8.77;;;4.80;99.90;;;;;;5057740;28;20194;-80
2021/11/07 04:29:01;;;;;;;16.50;8.90;;;4.70;99.90;;;;;;5059249;28;20297;-79
2021/11/07 04:31:28;;;;;;;14.00;8.50;;;4.50;99.90;;;;;;5058940;28;20343;-80
2021/11/07 04:33:55;;;;;;;13.60;9.10;;;4.60;99.90;;;;;;5084438;22;20285;-76
2021/11/07 04:36:22;;;;;;;13.05;9.15;;;4.60;99.90;;;;;;5058486;28;20214;-77
2021/11/07 04:38:50;;;;;;;13.18;9.00;;;4.40;99.90;;;;;;5057106;28;20288;-78
2021/11/07 04:41:18;;;;;;;14.35;10.07;;;4.60;99.90;;;;;;5060874;28;20321;-78
2021/11/07 04:43:47;;;;;;;11.50;8.30;;;4.50;99.90;;;;;;5064815;28;20210;-78
2021/11/07 04:46:14;;;;;;;14.55;8.60;;;4.50;99.90;;;;;;5064860;28;20209;-78
2021/11/07 04:48:42;;;;;;;15.60;9.40;;;4.80;99.90;;;;;;5063402;28;20202;-78
2021/11/07 04:51:09;;;;;;;13.73;8.80;;;4.80;99.90;;;;;;5056962;28;20208;-78
2021/11/07 04:53:36;;;;;;;13.30;8.02;;;4.80;99.90;;;;;;5059567;28;20273;-79
2021/11/07 04:56:17;;;;;;;12.13;8.15;;;4.80;99.90;;;;;;5057988;28;20237;-77
2021/11/07 04:58:44;;;;;;;12.80;8.40;;;4.70;99.90;;;;;;5057191;28;20220;-79
2021/11/07 05:01:11;;;;;;;14.00;8.65;;;4.50;99.90;;;;;;5055155;28;20217;-79
2021/11/07 05:03:38;;;;;;;13.05;9.38;;;4.50;99.90;;;;;;5054320;28;20210;-77
2021/11/07 05:06:05;;;;;;;13.65;9.40;;;4.60;99.90;;;;;;5063288;28;20230;-76
2021/11/07 05:08:32;;;;;;;10.68;7.35;;;4.40;99.90;;;;;;5068655;28;20288;-78
2021/11/07 05:11:00;;;;;;;12.40;8.68;;;4.50;99.90;;;;;;5057235;28;20206;-78
2021/11/07 05:13:28;;;;;;;12.77;8.65;;;4.60;99.90;;;;;;5054181;28;20583;-78
2021/11/07 05:15:56;;;;;;;15.18;8.57;;;4.50;99.90;;;;;;5059818;28;20222;-79
2021/11/07 05:18:23;;;;;;;14.68;9.43;;;4.50;99.90;;;;;;5054812;28;20732;-77
2021/11/07 05:20:51;;;;;;;14.25;9.20;;;4.50;99.90;;;;;;5054688;28;20206;-78
2021/11/07 05:23:17;;;;;;;12.73;9.00;;;4.20;99.90;;;;;;5055941;28;20212;-78
2021/11/07 05:25:44;;;;;;;13.10;8.55;;;4.40;99.90;;;;;;5054772;28;20232;-78
2021/11/07 05:28:11;;;;;;;13.10;8.13;;;4.40;99.90;;;;;;5058062;28;20558;-78
2021/11/07 05:30:40;;;;;;;14.07;9.40;;;4.30;99.90;;;;;;5060303;28;20292;-77
2021/11/07 05:33:06;;;;;;;14.93;9.00;;;4.50;99.90;;;;;;5054650;28;20301;-78
2021/11/07 05:35:33;;;;;;;14.27;8.90;;;4.30;99.90;;;;;;5054168;28;20240;-78
2021/11/07 05:38:01;;;;;;;14.30;9.35;;;4.20;99.90;;;;;;5054612;28;20706;-78
2021/11/07 05:40:28;;;;;;;13.75;9.20;;;4.40;99.90;;;;;;5053476;28;20210;-78
2021/11/07 05:42:55;;;;;;;14.40;8.63;;;4.30;99.90;;;;;;5055493;28;20241;-78
2021/11/07 05:45:22;;;;;;;11.18;8.15;;;4.80;99.90;;;;;;5054276;28;20283;-79
2021/11/07 05:47:50;;;;;;;11.65;8.00;;;4.60;99.90;;;;;;5055358;28;20265;-78
2021/11/07 05:50:20;;;;;;;13.45;8.73;;;4.60;99.90;;;;;;5055495;28;20555;-78
2021/11/07 05:52:47;;;;;;;15.30;9.45;;;4.50;99.90;;;;;;5056975;28;20578;-78
2021/11/07 05:55:14;;;;;;;12.90;8.63;;;4.50;99.90;;;;;;5059735;28;20722;-77
2021/11/07 05:57:42;;;;;;;13.23;8.50;;;4.50;99.90;;;;;;5054589;28;20312;-78
2021/11/07 06:00:11;;;;;;;11.05;7.72;;;4.50;99.90;;;;;;5057016;28;20198;-79
2021/11/07 06:02:38;;;;;;;12.38;8.25;;;4.80;99.90;;;;;;5058424;28;20268;-78
2021/11/07 06:05:08;;;;;;;15.18;9.10;;;4.80;99.90;;;;;;5057701;28;20226;-77
2021/11/07 06:07:34;;;;;;;11.93;8.77;;;4.90;99.90;;;;;;5058569;28;20215;-77
2021/11/07 06:10:01;;;;;;;13.50;8.35;;;4.80;99.90;;;;;;5058034;28;20229;-78
2021/11/07 06:12:28;;;;;;;14.23;8.20;;;4.90;99.90;;;;;;5057693;28;20636;-78
2021/11/07 06:14:55;;;;;;;14.10;8.93;;;4.70;99.90;;;;;;5057905;28;20226;-77
2021/11/07 06:17:22;;;;;;;11.60;8.60;;;5.10;99.90;;;;;;5064732;28;20317;-77
2021/11/07 06:19:49;;;;;;;14.45;8.73;;;4.80;99.90;;;;;;5057816;28;20210;-79
2021/11/07 06:22:20;;;;;;;12.57;8.05;;;4.80;99.90;;;;;;5058615;28;20716;-79
2021/11/07 06:24:47;;;;;;;11.82;8.45;;;5.00;99.90;;;;;;5058526;28;20245;-78
2021/11/07 06:27:14;;;;;;;16.00;9.65;;;5.00;99.90;;;;;;5057361;28;20202;-77
2021/11/07 06:29:42;;;;;;;13.65;8.50;;;4.90;99.90;;;;;;5057615;28;20202;-78
2021/11/07 06:32:10;;;;;;;16.92;9.88;;;4.80;99.90;;;;;;5064272;28;20202;-78
2021/11/07 06:34:37;;;;;;;13.82;9.30;;;4.70;99.90;;;;;;5079381;28;20241;-78
2021/11/07 06:37:05;;;;;;;14.90;9.10;;;4.80;99.90;;;;;;5062992;28;20213;-79
2021/11/07 06:39:33;;;;;;;14.63;8.45;;;4.70;99.90;;;;;;5059739;28;20297;-78
2021/11/07 06:42:00;;;;;;;12.43;8.55;;;4.60;99.90;;;;;;5061117;28;20264;-78
2021/11/07 06:44:27;;;;;;;13.93;9.90;;;4.80;99.90;;;;;;5065086;28;20297;-78
2021/11/07 06:46:54;;;;;;;14.85;9.35;;;4.90;99.90;;;;;;5063810;28;20202;-77
2021/11/07 06:49:21;;;;;;;16.25;10.93;;;4.70;99.90;;;;;;5060114;28;20202;-78
2021/11/07 06:51:48;;;;;;;16.83;10.50;;;4.90;99.90;;;;;;5065977;28;20202;-78
2021/11/07 06:54:15;;;;;;;15.82;10.15;;;5.00;99.90;;;;;;5058663;28;20316;-78
2021/11/07 06:56:44;;;;;;;15.38;10.35;;;5.00;99.90;;;;;;5058867;28;20550;-79
2021/11/07 06:59:11;;;;;;;16.33;10.35;;;4.90;99.90;;;;;;5062079;28;20211;-78
2021/11/07 07:01:38;;;;;;;16.45;11.48;;;5.20;99.90;;;;;;5063056;28;20224;-79
2021/11/07 07:04:05;;;;;;;19.75;10.90;;;4.90;99.90;;;;;;5057391;28;20277;-77
2021/11/07 07:06:33;;;;;;;17.63;11.07;;;5.00;99.90;;;;;;5058357;28;20303;-78
2021/11/07 07:09:04;;;;;;;17.58;11.00;;;5.10;99.90;;;;;;5058891;28;20210;-79
2021/11/07 07:11:33;;;;;;;15.85;9.52;;;5.10;99.90;;;;;;5059031;28;20200;-78
2021/11/07 07:14:05;;;;;;;14.82;10.40;;;5.30;99.90;;;;;;5061849;28;20213;-79
2021/11/07 07:16:42;;;;;;;17.20;11.27;;;5.40;99.90;;;;;;5067262;28;20201;-78
2021/11/07 07:19:24;;;;;;;16.30;10.43;;;5.40;99.90;;;;;;5061245;28;20225;-78
2021/11/07 07:22:01;;;;;;;17.67;11.75;;;5.50;99.90;;;;;;5060154;28;20197;-78
2021/11/07 07:24:54;;;;;;;15.02;10.05;;;5.40;99.90;;;;;;5057134;28;20714;-78
2021/11/07 07:27:53;;;;;;;19.98;12.18;;;5.50;99.90;;;;;;5061489;28;20213;-78
2021/11/07 07:30:38;;;;;;;16.65;10.55;;;5.40;99.90;;;;;;5060853;28;20230;-80
2021/11/07 07:33:24;;;;;;;18.00;11.77;;;5.50;99.90;;;;;;5058616;28;20194;-84
2021/11/07 07:35:52;;;;;;;19.38;11.02;;;5.70;99.90;;;;;;5061217;28;20795;-84
2021/11/07 07:38:19;;;;;;;19.15;11.35;;;5.70;99.90;;;;;;5058771;28;20240;-78
2021/11/07 07:40:46;;;;;;;16.77;10.52;;;5.70;99.90;;;;;;5057491;28;20581;-78
2021/11/07 07:43:13;;;;;;;18.52;11.98;;;5.90;99.90;;;;;;5056524;28;20206;-78
2021/11/07 07:45:41;;;;;;;17.23;11.45;;;5.80;99.90;;;;;;5057687;28;20305;-78
2021/11/07 07:48:08;;;;;;;17.10;10.48;;;6.10;99.90;;;;;;5058275;28;20308;-78
2021/11/07 07:50:38;;;;;;;18.02;12.30;;;6.10;99.90;;;;;;5058226;28;20205;-78
2021/11/07 07:53:05;;;;;;;14.55;9.82;;;6.30;99.90;;;;;;5057964;28;20210;-78
2021/11/07 07:55:33;;;;;;;17.27;10.23;;;6.20;99.90;;;;;;5057678;28;20230;-78
2021/11/07 07:57:59;;;;;;;19.30;10.65;;;6.70;99.90;;;;;;5059388;28;20234;-78
2021/11/07 08:00:27;;;;;;;13.95;9.60;;;6.70;99.90;;;;;;5063392;28;20297;-78
2021/11/07 08:02:56;;;;;;;16.42;10.68;;;6.50;99.90;;;;;;5057365;28;20302;-82
2021/11/07 08:05:23;;;;;;;15.15;10.05;;;6.70;99.90;;;;;;5058911;28;20226;-78
2021/11/07 08:07:50;;;;;;;12.95;9.55;;;6.70;99.90;;;;;;5057497;28;20198;-78
2021/11/07 08:10:17;;;;;;;15.02;10.43;;;6.70;99.90;;;;;;5057725;28;20206;-78
2021/11/07 08:12:43;;;;;;;13.73;9.32;;;6.70;99.90;;;;;;5057345;28;20206;-79
2021/11/07 08:15:13;;;;;;;17.30;10.77;;;6.80;99.90;;;;;;5057174;28;20232;-79
2021/11/07 08:17:41;;;;;;;14.63;9.60;;;7.00;99.90;;;;;;5056741;28;20207;-77
2021/11/07 08:20:12;;;;;;;13.98;9.95;;;6.90;99.90;;;;;;5055751;28;20242;-79
2021/11/07 08:22:42;;;;;;;15.68;10.77;;;6.80;99.90;;;;;;5057018;28;20202;-79
2021/11/07 08:25:12;;;;;;;15.35;10.05;;;7.00;99.90;;;;;;5057046;28;20234;-80
2021/11/07 08:27:40;;;;;;;15.18;10.07;;;7.00;99.90;;;;;;5054865;28;20244;-78
2021/11/07 08:30:08;;;;;;;15.57;10.63;;;7.10;99.90;;;;;;5057274;28;20210;-78
2021/11/07 08:32:35;;;;;;;14.48;9.88;;;7.30;99.90;;;;;;5055674;28;20252;-77
2021/11/07 08:35:03;;;;;;;14.98;9.70;;;6.90;99.90;;;;;;5057470;28;20291;-78
2021/11/07 08:37:35;;;;;;;15.52;10.30;;;6.90;99.90;;;;;;5056342;28;20206;-78
2021/11/07 08:40:07;;;;;;;15.65;10.13;;;7.10;99.90;;;;;;5055770;28;20233;-81
2021/11/07 08:42:37;;;;;;;18.63;11.32;;;7.00;99.90;;;;;;5055480;28;20248;-79
2021/11/07 09:01:44;;;;;;;14.90;9.60;;;7.30;99.90;;;;;;5060921;28;20310;-77
2021/11/07 09:04:24;;;;;;;13.45;9.07;;;7.20;99.90;;;;;;5056645;28;20284;-79
2021/11/07 09:07:12;;;;;;;13.27;8.02;;;7.40;99.90;;;;;;5056107;28;20661;-78
2021/11/07 09:09:42;;;;;;;13.43;8.60;;;7.10;99.90;;;;;;5054247;28;20183;-77
2021/11/07 09:12:10;;;;;;;12.18;7.00;;;7.50;99.90;;;;;;5055518;28;20214;-77
2021/11/07 09:14:39;;;;;;;12.77;7.95;;;7.40;99.90;;;;;;5055581;28;20227;-77
2021/11/07 09:17:08;;;;;;;11.82;7.60;;;7.50;99.90;;;;;;5057549;28;20535;-81
2021/11/07 09:19:37;;;;;;;12.73;7.25;;;7.70;99.90;;;;;;5054478;28;20314;-77
2021/11/07 09:22:09;;;;;;;10.20;6.90;;;7.70;99.90;;;;;;5055940;28;20629;-78
2021/11/07 09:24:39;;;;;;;9.98;6.30;;;7.80;99.90;;;;;;5059753;28;20233;-77
2021/11/07 09:27:14;;;;;;;11.90;6.20;;;8.20;99.90;;;;;;5062119;28;20201;-78
2021/11/07 09:29:52;;;;;;;10.60;6.07;;;8.30;99.90;;;;;;5059920;28;20187;-77
2021/11/07 09:32:31;;;;;;;8.65;5.88;;;8.50;99.90;;;;;;5056931;28;20279;-77
2021/11/07 09:35:10;;;;;;;8.60;5.57;;;8.80;99.90;;;;;;5056381;28;20241;-78
2021/11/07 09:37:44;;;;;;;8.23;5.30;;;9.00;99.90;;;;;;5058057;28;20203;-76
2021/11/07 09:40:14;;;;;;;7.25;4.72;;;9.00;99.90;;;;;;5053556;28;20209;-76
2021/11/07 09:42:58;;;;;;;7.72;4.63;;;9.10;99.90;;;;;;5055510;28;20213;-76
2021/11/07 09:45:30;;;;;;;8.00;5.25;;;9.20;99.90;;;;;;5055909;28;20567;-78
2021/11/07 09:48:00;;;;;;;7.85;5.20;;;9.20;99.90;;;;;;5053231;28;20202;-80
2021/11/07 09:50:27;;;;;;;7.53;5.38;;;9.20;99.90;;;;;;5054273;28;20223;-77
2021/11/07 09:52:55;;;;;;;7.83;4.83;;;9.20;99.90;;;;;;5055196;28;20280;-78
2021/11/07 09:55:25;;;;;;;8.93;4.70;;;9.30;99.90;;;;;;5055009;28;20922;-79
2021/11/07 09:57:56;;;;;;;6.13;4.23;;;9.40;99.90;;;;;;5057698;28;20456;-78
2021/11/07 10:00:26;;;;;;;8.03;4.43;;;9.50;99.90;;;;;;5055486;28;20502;-78
2021/11/07 10:02:53;;;;;;;5.13;3.13;;;9.80;99.90;;;;;;5059525;28;20410;-78
2021/11/07 10:05:20;;;;;;;4.97;2.90;;;10.00;99.90;;;;;;5060000;28;21026;-78
2021/11/07 10:07:56;;;;;;;5.40;3.20;;;10.10;99.90;;;;;;5055118;28;20462;-77
2021/11/07 10:10:25;;;;;;;7.07;3.63;;;10.10;99.90;;;;;;5055927;28;20446;-78
2021/11/07 10:12:54;;;;;;;6.83;3.33;;;10.30;99.90;;;;;;5056481;28;20434;-79
2021/11/07 10:15:27;;;;;;;6.00;3.60;;;10.30;99.90;;;;;;5057048;28;20480;-79
2021/11/07 10:17:58;;;;;;;6.27;3.93;;;10.20;99.90;;;;;;5055889;28;20517;-78
2021/11/07 10:20:31;;;;;;;5.90;3.57;;;10.20;99.90;;;;;;5055998;28;20559;-78
2021/11/07 10:23:06;;;;;;;5.37;3.00;;;10.20;99.90;;;;;;5055077;28;20924;-78
2021/11/07 10:25:40;;;;;;;6.80;3.00;;;10.20;99.90;;;;;;5060468;28;20537;-78
2021/11/07 10:28:17;;;;;;;5.07;3.10;;;10.30;99.90;;;;;;5056298;28;20445;-78
2021/11/07 10:30:47;;;;;;;5.57;3.13;;;10.40;99.90;;;;;;5055322;28;20422;-78
2021/11/07 10:33:26;;;;;;;4.67;2.57;;;10.50;99.90;;;;;;5055340;28;20613;-78
2021/11/07 10:39:12;;;;;;;3.87;1.87;;;10.50;99.90;;;;;;5055132;28;20474;-77
2021/11/07 10:47:25;;;;;;;5.10;3.20;;;11.00;99.90;;;;;;5051660;28;20432;-78
2021/11/07 10:52:40;;;;;;;6.43;2.90;;;11.20;99.90;;;;;;5058583;28;20407;-77
2021/11/07 10:55:08;;;;;;;5.50;3.70;;;11.30;99.90;;;;;;5058017;28;20533;-78
2021/11/07 10:57:34;;;;;;;6.27;2.90;;;11.30;99.90;;;;;;5058203;28;20765;-77
2021/11/07 11:00:18;;;;;;;4.70;3.03;;;11.30;99.90;;;;;;5059346;28;20484;-79
2021/11/07 11:02:47;;;;;;;4.87;3.20;;;11.30;99.90;;;;;;5058069;28;20430;-79
2021/11/07 11:05:16;;;;;;;5.07;2.60;;;11.30;99.90;;;;;;5062565;28;20558;-78
2021/11/07 11:07:59;;;;;;;7.50;3.10;;;11.50;99.90;;;;;;5061681;28;20419;-78
2021/11/07 11:10:33;;;;;;;4.90;2.27;;;11.60;99.90;;;;;;5062805;28;20479;-78
2021/11/07 11:13:09;;;;;;;4.07;2.43;;;11.70;99.90;;;;;;5062284;28;20470;-79
2021/11/07 11:15:44;;;;;;;5.67;3.27;;;11.70;99.90;;;;;;5058784;28;20441;-78
2021/11/07 11:18:30;;;;;;;22.10;6.70;;;11.90;99.90;;;;;;5059297;28;20439;-78
2021/11/07 11:24:14;;;;;;;4.30;2.53;;;12.20;99.90;;;;;;5015181;28;20430;-78
2021/11/07 11:26:55;;;;;;;5.20;2.37;;;12.20;99.90;;;;;;5051870;28;20432;-78
2021/11/07 11:32:23;;;;;;;4.40;2.23;;;12.40;99.90;;;;;;5157888;27;20577;-78
2021/11/07 11:34:57;;;;;;;4.07;2.07;;;12.60;99.90;;;;;;5155299;27;20571;-77
2021/11/07 11:37:29;;;;;;;5.13;2.13;;;12.80;99.90;;;;;;5154458;27;20427;-79
2021/11/07 11:40:02;;;;;;;5.37;1.80;;;12.80;99.90;;;;;;5155875;27;20439;-78
2021/11/07 11:42:34;;;;;;;3.80;1.60;;;12.80;99.90;;;;;;5157813;27;20432;-79
2021/11/07 11:45:02;;;;;;;5.50;2.20;;;12.70;99.90;;;;;;5158169;27;20470;-78
2021/11/07 11:47:54;;;;;;;3.43;1.47;;;12.80;99.90;;;;;;5158915;27;20448;-79
2021/11/07 11:50:31;;;;;;;3.20;1.20;;;12.70;99.90;;;;;;5157334;27;20443;-77
2021/11/07 11:53:12;;;;;;;2.80;0.90;;;12.60;99.90;;;;;;5157751;27;20446;-78
2021/11/07 11:55:48;;;;;;;3.57;1.60;;;12.50;99.90;;;;;;5157938;27;20454;-78
2021/11/07 11:58:28;;;;;;;3.13;1.30;;;12.50;99.90;;;;;;5156782;27;20403;-78
2021/11/07 12:01:02;;;;;;;4.50;1.50;;;12.40;99.90;;;;;;5156341;27;20491;-81
2021/11/07 12:03:39;;;;;;;3.27;1.50;;;12.30;99.90;;;;;;5127762;22;20470;-82
2021/11/07 12:06:25;;;;;;;3.80;1.40;;;12.30;99.90;;;;;;5077771;28;20428;-82
2021/11/07 12:09:39;;;;;;;3.80;1.37;;;12.30;99.90;;;;;;5077586;28;20439;-82
2021/11/07 12:12:11;;;;;;;4.30;1.30;;;12.40;99.90;;;;;;5081855;28;20514;-82
2021/11/07 12:14:56;;;;;;;2.50;1.00;;;12.30;99.90;;;;;;5084089;28;20409;-82
2021/11/07 12:17:29;;;;;;;4.13;1.60;;;12.50;99.90;;;;;;5086103;28;20455;-84
2021/11/07 12:19:57;;;;;;;3.03;1.00;;;12.50;99.90;;;;;;5078286;28;20503;-83
2021/11/07 12:22:26;;;;;;;3.10;1.43;;;12.60;99.90;;;;;;5075612;28;20551;-82
2021/11/07 12:25:05;;;;;;;4.50;1.40;;;12.60;99.90;;;;;;5074968;28;20768;-82
2021/11/07 12:27:36;;;;;;;3.83;1.40;;;12.70;99.90;;;;;;5074678;28;20443;-83
2021/11/07 12:30:22;;;;;;;3.17;1.30;;;12.70;99.90;;;;;;5077676;28;20403;-83
2021/11/07 12:32:51;;;;;;;3.57;1.20;;;12.70;99.90;;;;;;5079075;28;20434;-84
2021/11/07 12:35:33;;;;;;;3.10;1.00;;;12.80;99.90;;;;;;5078413;28;20538;-84
2021/11/07 12:40:51;;;;;;;2.90;1.07;;;13.00;99.90;;;;;;5079274;28;20445;-83
2021/11/07 12:43:22;;;;;;;2.90;0.90;;;13.00;99.90;;;;;;5071293;28;20463;-83
2021/11/07 12:45:53;;;;;;;2.90;1.13;;;13.20;99.90;;;;;;5069746;28;20905;-83
2021/11/07 12:48:45;;;;;;;2.93;1.37;;;13.20;99.90;;;;;;5068534;28;20750;-83
2021/11/07 12:51:15;;;;;;;2.83;1.10;;;13.20;99.90;;;;;;5061915;28;20808;-83
2021/11/07 12:54:03;;;;;;;3.00;1.00;;;13.10;99.90;;;;;;5062032;28;20566;-85
2021/11/07 12:56:36;;;;;;;3.53;1.20;;;13.20;99.90;;;;;;5064883;28;20484;-85
2021/11/07 12:59:06;;;;;;;3.03;0.90;;;13.20;99.90;;;;;;5067746;28;20411;-84
2021/11/07 13:01:55;;;;;;;3.17;1.00;;;13.20;99.90;;;;;;5069996;28;20408;-87
2021/11/07 13:04:25;;;;;;;3.93;1.13;;;13.30;99.90;;;;;;5061614;28;20446;-82
2021/11/07 13:06:56;;;;;;;2.40;0.77;;;13.30;99.90;;;;;;5060526;28;20429;-82
2021/11/07 13:09:32;;;;;;;4.30;0.87;;;13.40;99.90;;;;;;5060894;28;20783;-83
2021/11/07 13:12:10;;;;;;;3.23;1.10;;;13.20;99.90;;;;;;5061843;28;20549;-83
2021/11/07 13:15:27;;;;;;;3.50;1.20;;;13.20;99.90;;;;;;5067101;28;20787;-82
2021/11/07 13:29:40;;;;;;;2.53;0.83;;;13.30;99.90;;;;;;5058248;28;20419;-82
2021/11/07 13:35:10;;;;;;;2.50;0.80;;;13.00;99.90;;;;;;5059717;28;20398;-80
2021/11/07 13:37:41;;;;;;;3.80;1.10;;;12.80;99.90;;;;;;5059004;28;20408;-83
2021/11/07 13:40:15;;;;;;;2.70;1.10;;;12.90;99.90;;;;;;5064320;28;20481;-85
2021/11/07 13:42:44;;;;;;;5.83;1.27;;;12.80;99.90;;;;;;5066790;28;20465;-84
2021/11/07 13:45:21;;;;;;;3.47;1.10;;;12.80;99.90;;;;;;5066514;28;20426;-84
2021/11/07 13:47:50;;;;;;;4.10;1.20;;;12.70;99.90;;;;;;5065687;28;20428;-83
2021/11/07 13:50:19;;;;;;;4.40;1.23;;;12.50;99.90;;;;;;5059836;28;20451;-83
2021/11/07 13:52:46;;;;;;;5.17;2.47;;;12.50;99.90;;;;;;5060733;28;20526;-86
2021/11/07 13:55:17;;;;;;;3.07;1.10;;;12.50;99.90;;;;;;5062816;28;20531;-81
2021/11/07 13:57:45;;;;;;;3.77;1.53;;;12.50;99.90;;;;;;5071537;28;20415;-79
2021/11/07 14:00:22;;;;;;;3.20;1.27;;;12.50;99.90;;;;;;5071388;28;20438;-81